createdAt,value
2023-09-27T00:02:12.780Z,101686.25
2023-09-27T00:04:39.431Z,101679.44
2023-09-27T00:07:06.019Z,101678.81
2023-09-27T00:09:32.862Z,101677.69
2023-09-27T00:11:59.710Z,101671.44
2023-09-27T00:14:27.748Z,101675.47
2023-09-27T00:16:55.531Z,101673.63
2023-09-27T00:19:22.140Z,101675.34
2023-09-27T00:21:48.598Z,101674.41
2023-09-27T00:24:15.284Z,101673.88
2023-09-27T00:26:41.751Z,101668.91
2023-09-27T00:29:08.471Z,101679.13
2023-09-27T00:31:35.064Z,101671.56
2023-09-27T00:34:01.554Z,101662.84
2023-09-27T00:36:28.132Z,101669.97
2023-09-27T00:38:54.754Z,101675.25
2023-09-27T00:41:21.581Z,101665.06
2023-09-27T00:43:48.101Z,101676.38
2023-09-27T00:46:17.417Z,101676.63
2023-09-27T00:48:44.423Z,101685.41
2023-09-27T00:51:11.052Z,101683.91
2023-09-27T00:53:38.860Z,101681.88
2023-09-27T00:56:07.294Z,101679.69
2023-09-27T00:58:35.622Z,101676.56
2023-09-27T01:01:02.133Z,101676.78
2023-09-27T01:03:28.662Z,101671.16
2023-09-27T01:05:55.583Z,101675.13
2023-09-27T01:08:22.463Z,101666.97
2023-09-27T01:10:49.220Z,101672.28
2023-09-27T01:13:15.913Z,101670.91
2023-09-27T01:15:42.472Z,101677.38
2023-09-27T01:18:08.990Z,101670.63
2023-09-27T01:20:35.545Z,101669.47
2023-09-27T01:23:04.009Z,101673.38
2023-09-27T01:25:33.264Z,101674.88
2023-09-27T01:28:05.261Z,101676.13
2023-09-27T01:30:35.087Z,101680.16
2023-09-27T01:33:07.411Z,101678.78
2023-09-27T01:35:42.538Z,101675.63
2023-09-27T01:38:10.122Z,101677.34
2023-09-27T01:40:39.746Z,101673.41
2023-09-27T01:43:06.269Z,101679.09
2023-09-27T01:45:33.241Z,101679.69
2023-09-27T01:48:01.161Z,101674.09
2023-09-27T01:50:28.744Z,101676.09
2023-09-27T01:52:57.742Z,101681.72
2023-09-27T01:55:25.248Z,101674.09
2023-09-27T01:57:52.961Z,101670.69
2023-09-27T02:00:20.399Z,101674.88
2023-09-27T02:02:59.193Z,101663.13
2023-09-27T02:05:27.461Z,101663.22
2023-09-27T02:07:54.364Z,101671.69
2023-09-27T02:10:21.772Z,101668.94
2023-09-27T02:12:48.440Z,101669.56
2023-09-27T02:15:16.209Z,101678.66
2023-09-27T02:17:43.946Z,101690.06
2023-09-27T02:20:12.531Z,101689.47
2023-09-27T02:22:41.274Z,101693.38
2023-09-27T02:25:12.644Z,101697.94
2023-09-27T02:27:39.920Z,101689.22
2023-09-27T02:30:08.702Z,101695.09
2023-09-27T02:32:35.450Z,101698.72
2023-09-27T02:35:02.321Z,101696.44
2023-09-27T02:37:28.827Z,101687.44
2023-09-27T02:39:55.342Z,101685.00
2023-09-27T02:42:21.796Z,101696.91
2023-09-27T02:44:48.753Z,101707.19
2023-09-27T02:47:15.365Z,101714.03
2023-09-27T02:49:41.895Z,101701.59
2023-09-27T02:52:08.375Z,101699.25
2023-09-27T02:54:34.829Z,101697.81
2023-09-27T02:57:01.289Z,101691.59
2023-09-27T02:59:30.543Z,101685.63
2023-09-27T03:01:57.098Z,101682.25
2023-09-27T03:04:23.553Z,101674.41
2023-09-27T03:06:50.229Z,101675.81
2023-09-27T03:09:17.761Z,101668.19
2023-09-27T03:11:44.342Z,101667.38
2023-09-27T03:14:10.941Z,101659.19
2023-09-27T03:16:38.641Z,101656.94
2023-09-27T03:19:05.597Z,101649.31
2023-09-27T03:21:32.180Z,101654.44
2023-09-27T03:23:58.673Z,101657.81
2023-09-27T03:26:25.264Z,101652.75
2023-09-27T03:28:53.197Z,101651.34
2023-09-27T03:31:20.717Z,101641.84
2023-09-27T03:33:50.171Z,101644.97
2023-09-27T03:36:16.663Z,101645.28
2023-09-27T03:38:43.360Z,101661.72
2023-09-27T03:41:11.132Z,101670.47
2023-09-27T03:43:37.723Z,101675.53
2023-09-27T03:46:07.198Z,101678.63
2023-09-27T03:48:34.566Z,101667.91
2023-09-27T03:51:01.525Z,101661.69
2023-09-27T03:53:30.005Z,101656.59
2023-09-27T03:55:56.585Z,101657.75
2023-09-27T03:58:23.223Z,101677.47
2023-09-27T04:00:49.786Z,101679.19
2023-09-27T04:03:17.713Z,101671.56
2023-09-27T04:05:44.366Z,101681.44
2023-09-27T04:08:12.514Z,101681.16
2023-09-27T04:10:39.448Z,101679.19
2023-09-27T04:13:06.777Z,101689.88
2023-09-27T04:15:36.463Z,101700.03
2023-09-27T04:18:03.628Z,101699.75
2023-09-27T04:20:30.503Z,101712.69
2023-09-27T04:22:57.917Z,101709.31
2023-09-27T04:25:24.587Z,101713.53
2023-09-27T04:27:51.998Z,101719.16
2023-09-27T04:30:23.377Z,101719.75
2023-09-27T04:32:55.000Z,101733.25
2023-09-27T04:35:22.403Z,101726.53
2023-09-27T04:37:49.752Z,101721.16
2023-09-27T04:40:16.662Z,101720.59
2023-09-27T04:42:44.115Z,101717.19
2023-09-27T04:45:14.479Z,101717.78
2023-09-27T04:47:42.146Z,101729.88
2023-09-27T04:50:12.244Z,101731.31
2023-09-27T04:52:40.219Z,101739.47
2023-09-27T04:55:08.481Z,101737.78
2023-09-27T04:57:35.100Z,101742.84
2023-09-27T05:00:01.905Z,101749.88
2023-09-27T05:02:28.742Z,101749.06
2023-09-27T05:04:55.273Z,101755.25
2023-09-27T05:07:21.795Z,101749.91
2023-09-27T05:09:48.870Z,101753.59
2023-09-27T05:12:15.816Z,101757.50
2023-09-27T05:14:42.762Z,101768.19
2023-09-27T05:17:10.393Z,101768.75
2023-09-27T05:19:36.942Z,101767.91
2023-09-27T05:22:03.753Z,101763.69
2023-09-27T05:24:30.302Z,101759.75
2023-09-27T05:27:00.508Z,101768.75
2023-09-27T05:29:28.214Z,101766.22
2023-09-27T05:31:54.743Z,101778.88
2023-09-27T05:34:21.231Z,101777.78
2023-09-27T05:36:47.696Z,101789.59
2023-09-27T05:39:14.138Z,101787.88
2023-09-27T05:41:40.614Z,101782.00
2023-09-27T05:44:07.143Z,101795.22
2023-09-27T05:46:34.657Z,101796.91
2023-09-27T05:49:06.213Z,101799.72
2023-09-27T05:51:32.763Z,101810.13
2023-09-27T05:53:59.704Z,101812.09
2023-09-27T05:56:26.744Z,101814.91
2023-09-27T05:58:53.733Z,101812.09
2023-09-27T06:01:20.983Z,101809.56
2023-09-27T06:03:48.185Z,101811.84
2023-09-27T06:06:15.118Z,101818.84
2023-09-27T06:08:42.377Z,101822.50
2023-09-27T06:11:10.500Z,101820.53
2023-09-27T06:13:39.962Z,101818.28
2023-09-27T06:16:18.101Z,101824.19
2023-09-27T06:18:44.733Z,101823.91
2023-09-27T06:21:11.231Z,101813.78
2023-09-27T06:23:37.826Z,101816.31
2023-09-27T06:26:04.327Z,101814.91
2023-09-27T06:28:30.860Z,101817.44
2023-09-27T06:30:57.397Z,101816.59
2023-09-27T06:33:23.967Z,101822.50
2023-09-27T06:35:50.448Z,101823.34
2023-09-27T06:38:20.741Z,101829.81
2023-09-27T06:40:47.257Z,101820.25
2023-09-27T06:43:15.269Z,101828.13
2023-09-27T06:45:41.805Z,101827.56
2023-09-27T06:48:08.547Z,101828.66
2023-09-27T06:50:35.300Z,101827.53
2023-09-27T06:53:19.828Z,101837.63
2023-09-27T06:55:50.390Z,101829.75
2023-09-27T06:58:24.117Z,101826.34
2023-09-27T07:00:52.506Z,101829.38
2023-09-27T07:03:20.732Z,101830.22
2023-09-27T07:05:47.821Z,101828.47
2023-09-27T07:08:14.723Z,101827.88
2023-09-27T07:10:41.806Z,101821.34
2023-09-27T07:13:08.471Z,101820.44
2023-09-27T07:15:35.019Z,101820.09
2023-09-27T07:18:01.747Z,101816.63
2023-09-27T07:20:29.972Z,101814.00
2023-09-27T07:22:57.516Z,101808.00
2023-09-27T07:25:24.575Z,101801.91
2023-09-27T07:27:52.726Z,101806.34
2023-09-27T07:30:22.032Z,101806.44
2023-09-27T07:32:49.032Z,101807.13
2023-09-27T07:35:17.919Z,101810.94
2023-09-27T07:37:45.269Z,101811.66
2023-09-27T07:40:13.775Z,101808.97
2023-09-27T07:42:45.426Z,101821.22
2023-09-27T07:45:16.649Z,101818.16
2023-09-27T07:47:43.798Z,101817.75
2023-09-27T07:50:11.317Z,101808.25
2023-09-27T07:52:38.298Z,101801.28
2023-09-27T07:55:05.785Z,101803.44
2023-09-27T07:57:32.307Z,101797.94
2023-09-27T07:59:59.389Z,101801.78
2023-09-27T08:02:27.285Z,101807.59
2023-09-27T08:04:53.944Z,101797.56
2023-09-27T08:07:20.421Z,101806.19
2023-09-27T08:09:46.879Z,101804.63
2023-09-27T08:12:14.278Z,101806.13
2023-09-27T08:14:40.782Z,101815.88
2023-09-27T08:17:08.249Z,101819.16
2023-09-27T08:19:34.855Z,101817.63
2023-09-27T08:22:01.350Z,101816.28
2023-09-27T08:24:27.799Z,101813.78
2023-09-27T08:26:54.345Z,101809.06
2023-09-27T08:29:22.703Z,101817.34
2023-09-27T08:31:49.262Z,101822.00
2023-09-27T08:34:15.718Z,101814.41
2023-09-27T08:36:42.182Z,101819.56
2023-09-27T08:39:10.648Z,101817.97
2023-09-27T08:41:39.166Z,101816.56
2023-09-27T08:44:07.367Z,101814.16
2023-09-27T08:46:35.919Z,101811.38
2023-09-27T08:49:03.779Z,101810.84
2023-09-27T08:51:31.149Z,101812.91
2023-09-27T08:53:57.915Z,101806.81
2023-09-27T08:56:25.732Z,101803.38
2023-09-27T08:58:52.475Z,101800.59
2023-09-27T09:01:19.464Z,101802.03
2023-09-27T09:03:47.903Z,101810.81
2023-09-27T09:06:16.866Z,101807.19
2023-09-27T09:08:44.594Z,101808.41
2023-09-27T09:11:12.613Z,101805.63
2023-09-27T09:14:01.189Z,101811.00
2023-09-27T09:16:27.754Z,101810.75
2023-09-27T09:18:56.654Z,101815.09
2023-09-27T09:21:26.293Z,101802.09
2023-09-27T09:23:52.987Z,101798.78
2023-09-27T09:26:31.024Z,101790.59
2023-09-27T09:29:01.095Z,101782.91
2023-09-27T09:31:31.967Z,101779.44
2023-09-27T09:34:09.418Z,101782.31
2023-09-27T09:36:37.968Z,101774.47
2023-09-27T09:39:18.407Z,101776.13
2023-09-27T09:41:47.263Z,101779.84
2023-09-27T09:44:22.035Z,101773.47
2023-09-27T09:46:49.907Z,101772.97
2023-09-27T09:49:17.068Z,101770.97
2023-09-27T09:51:48.208Z,101775.13
2023-09-27T09:54:27.986Z,101761.56
2023-09-27T09:57:07.206Z,101754.84
2023-09-27T09:59:50.929Z,101747.75
2023-09-27T10:02:28.122Z,101753.78
2023-09-27T10:04:58.090Z,101752.09
2023-09-27T10:07:24.830Z,101750.06
2023-09-27T10:09:51.282Z,101747.19
2023-09-27T10:12:19.483Z,101745.63
2023-09-27T10:14:47.154Z,101744.38
2023-09-27T10:17:23.812Z,101746.72
2023-09-27T10:20:16.288Z,101752.38
2023-09-27T10:22:44.710Z,101746.50
2023-09-27T10:25:32.758Z,101747.78
2023-09-27T10:28:16.384Z,101740.53
2023-09-27T10:30:42.835Z,101746.38
2023-09-27T10:33:18.169Z,101743.47
2023-09-27T10:36:08.892Z,101734.38
2023-09-27T10:38:44.125Z,101733.53
2023-09-27T10:41:33.706Z,101730.25
2023-09-27T10:44:01.325Z,101725.03
2023-09-27T10:46:28.048Z,101725.31
2023-09-27T10:49:01.850Z,101724.84
2023-09-27T10:51:28.300Z,101719.19
2023-09-27T10:53:57.625Z,101717.06
2023-09-27T10:56:24.221Z,101711.00
2023-09-27T10:58:50.940Z,101709.72
2023-09-27T11:01:21.395Z,101712.34
2023-09-27T11:03:47.949Z,101696.28
2023-09-27T11:06:17.092Z,101694.75
2023-09-27T11:08:44.230Z,101700.75
2023-09-27T11:11:14.183Z,101689.53
2023-09-27T11:13:47.192Z,101696.56
2023-09-27T11:16:19.609Z,101698.22
2023-09-27T11:18:47.681Z,101694.31
2023-09-27T11:21:14.940Z,101696.63
2023-09-27T11:24:02.061Z,101698.06
2023-09-27T11:26:30.397Z,101698.16
2023-09-27T11:29:05.047Z,101692.47
2023-09-27T11:31:33.317Z,101694.22
2023-09-27T11:34:32.517Z,101683.84
2023-09-27T11:37:00.407Z,101684.56
2023-09-27T11:39:51.675Z,101678.84
2023-09-27T11:42:22.387Z,101685.03
2023-09-27T11:45:05.704Z,101693.63
2023-09-27T11:47:36.253Z,101683.97
2023-09-27T11:50:02.734Z,101683.50
2023-09-27T11:52:29.190Z,101681.44
2023-09-27T11:54:55.642Z,101678.59
2023-09-27T11:57:22.111Z,101666.78
2023-09-27T11:59:48.624Z,101672.00
2023-09-27T12:02:26.810Z,101666.19
2023-09-27T12:04:56.254Z,101668.78
2023-09-27T12:07:22.884Z,101665.66
2023-09-27T12:09:49.936Z,101661.13
2023-09-27T12:12:16.466Z,101657.44
2023-09-27T12:14:42.959Z,101659.69
2023-09-27T12:17:10.258Z,101658.22
2023-09-27T12:19:36.823Z,101655.09
2023-09-27T12:22:04.482Z,101648.28
2023-09-27T12:24:31.865Z,101650.91
2023-09-27T12:26:58.317Z,101639.53
2023-09-27T12:29:24.816Z,101632.72
2023-09-27T12:31:51.342Z,101633.03
2023-09-27T12:34:17.808Z,101629.97
2023-09-27T12:36:44.277Z,101627.47
2023-09-27T12:39:11.355Z,101632.03
2023-09-27T12:41:37.833Z,101630.34
2023-09-27T12:44:04.527Z,101622.13
2023-09-27T12:46:31.006Z,101618.50
2023-09-27T12:48:57.522Z,101625.41
2023-09-27T12:51:34.881Z,101616.34
2023-09-27T12:54:05.642Z,101618.19
2023-09-27T12:56:32.177Z,101615.13
2023-09-27T12:58:58.666Z,101605.72
2023-09-27T13:01:25.160Z,101615.78
2023-09-27T13:03:51.770Z,101608.75
2023-09-27T13:06:18.269Z,101604.88
2023-09-27T13:08:44.896Z,101610.25
2023-09-27T13:11:11.487Z,101598.97
2023-09-27T13:13:38.066Z,101596.09
2023-09-27T13:16:04.644Z,101599.69
2023-09-27T13:18:31.210Z,101590.53
2023-09-27T13:20:57.691Z,101594.16
2023-09-27T13:23:24.157Z,101587.22
2023-09-27T13:25:54.673Z,101584.41
2023-09-27T13:28:21.216Z,101581.28
2023-09-27T13:30:48.078Z,101585.78
2023-09-27T13:33:14.943Z,101583.31
2023-09-27T13:35:41.448Z,101576.56
2023-09-27T13:38:09.007Z,101576.56
2023-09-27T13:40:36.212Z,101574.72
2023-09-27T13:43:02.941Z,101572.31
2023-09-27T13:45:29.557Z,101573.41
2023-09-27T13:47:56.140Z,101569.25
2023-09-27T13:50:22.695Z,101563.03
2023-09-27T13:52:49.190Z,101564.63
2023-09-27T13:55:16.052Z,101558.44
2023-09-27T13:57:42.794Z,101556.75
2023-09-27T14:00:10.857Z,101552.03
2023-09-27T14:02:37.430Z,101559.75
2023-09-27T14:05:04.691Z,101553.25
2023-09-27T14:07:32.079Z,101550.84
2023-09-27T14:09:58.896Z,101546.78
2023-09-27T14:12:25.409Z,101545.19
2023-09-27T14:14:52.014Z,101548.97
2023-09-27T14:17:18.527Z,101536.88
2023-09-27T14:19:45.377Z,101542.31
2023-09-27T14:22:11.941Z,101535.38
2023-09-27T14:24:38.476Z,101536.59
2023-09-27T14:27:05.583Z,101534.47
2023-09-27T14:29:36.197Z,101534.91
2023-09-27T14:32:07.214Z,101535.00
2023-09-27T14:37:08.422Z,101533.03
2023-09-27T14:39:35.373Z,101536.84
2023-09-27T14:42:01.866Z,101532.38
2023-09-27T14:44:28.329Z,101523.75
2023-09-27T14:46:54.921Z,101527.50
2023-09-27T14:49:21.491Z,101530.72
2023-09-27T14:51:48.103Z,101538.09
2023-09-27T14:54:16.237Z,101522.56
2023-09-27T14:56:44.017Z,101519.25
2023-09-27T14:59:10.496Z,101524.16
2023-09-27T15:01:37.073Z,101515.53
2023-09-27T15:04:03.730Z,101515.16
2023-09-27T15:06:30.244Z,101512.28
2023-09-27T15:08:56.702Z,101508.59
2023-09-27T15:11:24.600Z,101513.44
2023-09-27T15:13:52.140Z,101514.63
2023-09-27T15:16:20.198Z,101503.88
2023-09-27T15:18:47.936Z,101501.41
2023-09-27T15:21:14.977Z,101499.66
2023-09-27T15:23:42.300Z,101493.00
2023-09-27T15:26:08.986Z,101503.19
2023-09-27T15:28:35.916Z,101500.22
2023-09-27T15:31:04.265Z,101500.97
2023-09-27T15:33:30.791Z,101502.09
2023-09-27T15:35:57.606Z,101502.38
2023-09-27T15:38:30.383Z,101503.88
2023-09-27T15:40:56.894Z,101500.81
2023-09-27T15:43:25.145Z,101499.44
2023-09-27T15:46:04.280Z,101502.91
2023-09-27T15:48:35.077Z,101502.34
2023-09-27T15:51:08.574Z,101496.44
2023-09-27T15:53:36.237Z,101505.69
2023-09-27T15:56:04.395Z,101507.97
2023-09-27T15:58:33.141Z,101500.03
2023-09-27T16:01:04.867Z,101495.41
2023-09-27T16:03:32.005Z,101509.16
2023-09-27T16:05:59.438Z,101507.38
2023-09-27T16:08:27.900Z,101503.97
2023-09-27T16:10:55.650Z,101504.25
2023-09-27T16:13:23.870Z,101503.19
2023-09-27T16:15:52.450Z,101500.94
2023-09-27T16:18:20.745Z,101507.75
2023-09-27T16:20:47.954Z,101502.28
2023-09-27T16:23:15.309Z,101503.94
2023-09-27T16:25:42.922Z,101501.34
2023-09-27T16:28:09.478Z,101500.31
2023-09-27T16:30:36.760Z,101495.56
2023-09-27T16:33:05.563Z,101490.47
2023-09-27T16:35:36.905Z,101490.25
2023-09-27T16:38:03.942Z,101483.56
2023-09-27T16:40:30.504Z,101489.19
2023-09-27T16:42:58.772Z,101483.00
2023-09-27T16:45:25.350Z,101485.88
2023-09-27T16:47:51.877Z,101486.34
2023-09-27T16:50:18.496Z,101479.56
2023-09-27T16:52:44.998Z,101472.53
2023-09-27T16:55:12.189Z,101471.13
2023-09-27T16:57:39.675Z,101467.19
2023-09-27T17:00:11.322Z,101475.56
2023-09-27T17:02:39.230Z,101463.88
2023-09-27T17:05:06.930Z,101467.09
2023-09-27T17:07:34.982Z,101465.44
2023-09-27T17:10:02.970Z,101460.53
2023-09-27T17:12:29.521Z,101455.53
2023-09-27T17:14:56.119Z,101456.50
2023-09-27T17:17:22.754Z,101457.41
2023-09-27T17:19:52.781Z,101456.34
2023-09-27T17:22:20.277Z,101459.78
2023-09-27T17:24:47.047Z,101454.31
2023-09-27T17:27:13.918Z,101461.44
2023-09-27T17:29:40.415Z,101461.66
2023-09-27T17:32:07.010Z,101463.44
2023-09-27T17:34:33.544Z,101458.66
2023-09-27T17:37:00.056Z,101461.13
2023-09-27T17:39:26.661Z,101462.06
2023-09-27T17:41:53.140Z,101462.16
2023-09-27T17:44:19.874Z,101460.06
2023-09-27T17:46:46.414Z,101466.19
2023-09-27T17:49:12.994Z,101461.88
2023-09-27T17:51:40.960Z,101458.53
2023-09-27T17:54:09.545Z,101452.72
2023-09-27T17:56:36.055Z,101462.66
2023-09-27T17:59:02.588Z,101456.34
2023-09-27T18:01:29.110Z,101457.50
2023-09-27T18:03:56.608Z,101459.41
2023-09-27T18:06:23.354Z,101453.91
2023-09-27T18:08:49.910Z,101454.81
2023-09-27T18:11:17.096Z,101456.69
2023-09-27T18:13:44.419Z,101447.84
2023-09-27T18:16:19.367Z,101445.16
2023-09-27T18:18:47.698Z,101441.81
2023-09-27T18:21:16.740Z,101435.16
2023-09-27T18:23:44.474Z,101442.94
2023-09-27T18:26:11.709Z,101448.19
2023-09-27T18:28:38.795Z,101442.19
2023-09-27T18:31:06.104Z,101440.38
2023-09-27T18:33:32.740Z,101442.09
2023-09-27T18:35:59.354Z,101434.53
2023-09-27T18:38:26.756Z,101437.69
2023-09-27T18:40:53.412Z,101433.16
2023-09-27T18:43:20.033Z,101433.56
2023-09-27T18:45:47.145Z,101432.22
2023-09-27T18:48:19.494Z,101437.28
2023-09-27T18:50:47.764Z,101436.28
2023-09-27T18:53:14.602Z,101434.81
2023-09-27T18:55:41.153Z,101430.50
2023-09-27T18:58:10.087Z,101439.53
2023-09-27T19:00:36.867Z,101432.66
2023-09-27T19:03:03.676Z,101426.53
2023-09-27T19:05:31.234Z,101435.59
2023-09-27T19:07:58.200Z,101422.88
2023-09-27T19:10:25.011Z,101429.25
2023-09-27T19:12:51.462Z,101426.09
2023-09-27T19:15:18.047Z,101426.28
2023-09-27T19:17:44.567Z,101423.06
2023-09-27T19:20:11.498Z,101423.91
2023-09-27T19:22:38.054Z,101422.06
2023-09-27T19:25:04.910Z,101424.91
2023-09-27T19:27:31.383Z,101418.88
2023-09-27T19:29:57.878Z,101418.53
2023-09-27T19:32:24.713Z,101419.91
2023-09-27T19:34:51.285Z,101412.06
2023-09-27T19:37:17.754Z,101410.72
2023-09-27T19:39:44.207Z,101409.88
2023-09-27T19:42:10.802Z,101409.72
2023-09-27T19:44:37.292Z,101405.22
2023-09-27T19:47:03.945Z,101407.22
2023-09-27T19:49:30.423Z,101400.34
2023-09-27T19:51:56.971Z,101398.88
2023-09-27T19:54:23.441Z,101401.06
2023-09-27T19:56:50.015Z,101395.22
2023-09-27T19:59:16.562Z,101397.69
2023-09-27T20:01:43.272Z,101395.38
2023-09-27T20:04:09.948Z,101389.81
2023-09-27T20:06:40.943Z,101394.03
2023-09-27T20:09:10.949Z,101385.34
2023-09-27T20:11:37.989Z,101384.19
2023-09-27T20:14:05.118Z,101383.16
2023-09-27T20:16:33.869Z,101372.13
2023-09-27T20:19:01.227Z,101374.31
2023-09-27T20:21:27.768Z,101380.50
2023-09-27T20:23:54.422Z,101379.16
2023-09-27T20:26:21.039Z,101379.50
2023-09-27T20:28:48.162Z,101385.19
2023-09-27T20:31:16.080Z,101375.47
2023-09-27T20:33:42.570Z,101378.00
2023-09-27T20:36:13.363Z,101377.13
2023-09-27T20:38:40.289Z,101375.63
2023-09-27T20:41:06.800Z,101373.66
2023-09-27T20:43:33.345Z,101371.66
2023-09-27T20:45:59.834Z,101377.47
2023-09-27T20:48:26.612Z,101375.97
2023-09-27T20:50:58.052Z,101374.63
2023-09-27T20:53:25.444Z,101378.81
2023-09-27T20:55:53.983Z,101382.94
2023-09-27T20:58:20.946Z,101377.09
2023-09-27T21:00:47.483Z,101380.78
2023-09-27T21:03:14.089Z,101381.63
2023-09-27T21:05:40.748Z,101385.78
2023-09-27T21:08:07.270Z,101384.81
2023-09-27T21:10:34.112Z,101380.63
2023-09-27T21:13:00.608Z,101370.47
2023-09-27T21:15:27.340Z,101372.81
2023-09-27T21:17:53.801Z,101368.13
2023-09-27T21:20:20.280Z,101368.63
2023-09-27T21:22:46.740Z,101363.94
2023-09-27T21:25:13.249Z,101372.97
2023-09-27T21:27:39.984Z,101373.81
2023-09-27T21:30:07.374Z,101368.31
2023-09-27T21:32:33.959Z,101366.81
2023-09-27T21:35:00.662Z,101369.47
2023-09-27T21:37:27.628Z,101365.63
2023-09-27T21:39:54.789Z,101357.28
2023-09-27T21:42:21.614Z,101356.59
2023-09-27T21:44:48.145Z,101351.91
2023-09-27T21:47:14.652Z,101346.22
2023-09-27T21:49:41.120Z,101352.75
2023-09-27T21:52:07.554Z,101348.91
2023-09-27T21:54:34.039Z,101352.41
2023-09-27T21:57:00.636Z,101341.69
2023-09-27T21:59:27.090Z,101345.19
2023-09-27T22:01:54.515Z,101342.47
2023-09-27T22:04:21.992Z,101340.16
2023-09-27T22:06:48.642Z,101330.63
2023-09-27T22:09:15.152Z,101323.63
2023-09-27T22:11:41.973Z,101329.97
2023-09-27T22:14:08.505Z,101324.59
2023-09-27T22:16:35.127Z,101319.91
2023-09-27T22:19:02.012Z,101325.41
2023-09-27T22:21:30.004Z,101319.56
2023-09-27T22:24:09.274Z,101310.19
2023-09-27T22:26:35.709Z,101315.31
2023-09-27T22:29:02.271Z,101304.47
2023-09-27T22:31:32.195Z,101299.75
2023-09-27T22:34:05.782Z,101306.56
2023-09-27T22:36:32.754Z,101306.41
2023-09-27T22:39:09.502Z,101300.00
2023-09-27T22:41:40.738Z,101301.19
2023-09-27T22:44:19.758Z,101299.00
2023-09-27T22:46:51.083Z,101294.69
2023-09-27T22:49:18.669Z,101290.44
2023-09-27T22:51:47.078Z,101287.03
2023-09-27T22:54:21.107Z,101294.16
2023-09-27T22:56:49.713Z,101292.94
2023-09-27T22:59:16.928Z,101301.63
2023-09-27T23:01:45.000Z,101298.81
2023-09-27T23:04:16.299Z,101288.78
2023-09-27T23:06:47.979Z,101296.03
2023-09-27T23:09:25.308Z,101289.53
2023-09-27T23:12:13.445Z,101284.00
2023-09-27T23:14:58.487Z,101280.59
2023-09-27T23:17:29.385Z,101279.63
2023-09-27T23:19:55.824Z,101284.50
2023-09-27T23:22:22.305Z,101278.53
2023-09-27T23:25:06.666Z,101272.19
2023-09-27T23:27:34.071Z,101277.34
2023-09-27T23:30:00.640Z,101280.16
2023-09-27T23:32:31.321Z,101281.94
2023-09-27T23:37:34.399Z,101281.16
2023-09-27T23:40:02.186Z,101279.72
2023-09-27T23:42:35.637Z,101280.88
2023-09-27T23:45:11.288Z,101273.72
2023-09-27T23:47:39.400Z,101272.69
2023-09-27T23:50:12.013Z,101273.00
2023-09-27T23:52:46.441Z,101277.22
2023-09-27T23:55:18.001Z,101275.78
2023-09-27T23:57:48.252Z,101275.16
